sensor_id;sensor_type;location;lat;lon;timestamp;temperature;humidity
12374;DHT22;6251;51.762;8.660;2023-04-10T01:01:14;2.80;99.90
12374;DHT22;6251;51.762;8.660;2023-04-10T02:52:48;2.90;99.90
12374;DHT22;6251;51.762;8.660;2023-04-10T04:03:51;3.00;99.90
12374;DHT22;6251;51.762;8.660;2023-04-10T04:13:52;3.00;99.90
12374;DHT22;6251;51.762;8.660;2023-04-10T04:23:52;3.00;99.90
12374;DHT22;6251;51.762;8.660;2023-04-10T04:33:54;2.90;99.90
12374;DHT22;6251;51.762;8.660;2023-04-10T04:43:55;2.90;99.90
12374;DHT22;6251;51.762;8.660;2023-04-10T04:53:55;2.90;99.90
12374;DHT22;6251;51.762;8.660;2023-04-10T05:03:56;2.90;99.90
12374;DHT22;6251;51.762;8.660;2023-04-10T05:13:57;3.00;99.90
12374;DHT22;6251;51.762;8.660;2023-04-10T05:23:57;3.00;99.90
12374;DHT22;6251;51.762;8.660;2023-04-10T05:33:58;3.10;99.90
12374;DHT22;6251;51.762;8.660;2023-04-10T05:43:58;3.30;99.90
12374;DHT22;6251;51.762;8.660;2023-04-10T05:53:59;3.50;99.90
12374;DHT22;6251;51.762;8.660;2023-04-10T06:04:00;3.80;99.90
12374;DHT22;6251;51.762;8.660;2023-04-10T06:14:02;4.20;99.90
12374;DHT22;6251;51.762;8.660;2023-04-10T06:24:02;4.80;99.90
12374;DHT22;6251;51.762;8.660;2023-04-10T06:34:03;5.30;99.90
12374;DHT22;6251;51.762;8.660;2023-04-10T06:44:04;5.80;99.90
12374;DHT22;6251;51.762;8.660;2023-04-10T06:54:04;6.20;99.90
12374;DHT22;6251;51.762;8.660;2023-04-10T07:04:05;6.40;99.90
12374;DHT22;6251;51.762;8.660;2023-04-10T07:14:06;6.90;99.90
12374;DHT22;6251;51.762;8.660;2023-04-10T07:24:07;7.40;99.90
12374;DHT22;6251;51.762;8.660;2023-04-10T07:34:09;8.00;99.90
12374;DHT22;6251;51.762;8.660;2023-04-10T07:44:09;8.40;99.90
12374;DHT22;6251;51.762;8.660;2023-04-10T07:54:10;8.90;99.90
12374;DHT22;6251;51.762;8.660;2023-04-10T08:04:11;9.30;99.90
12374;DHT22;6251;51.762;8.660;2023-04-10T08:14:11;9.70;99.90
12374;DHT22;6251;51.762;8.660;2023-04-10T08:24:12;10.10;99.90
12374;DHT22;6251;51.762;8.660;2023-04-10T08:34:13;10.50;99.90
12374;DHT22;6251;51.762;8.660;2023-04-10T08:44:13;11.00;99.90
12374;DHT22;6251;51.762;8.660;2023-04-10T08:54:20;11.60;99.90
12374;DHT22;6251;51.762;8.660;2023-04-10T09:04:25;12.20;99.90
12374;DHT22;6251;51.762;8.660;2023-04-10T09:15:02;12.60;99.90
12374;DHT22;6251;51.762;8.660;2023-04-10T09:25:03;12.90;99.90
12374;DHT22;6251;51.762;8.660;2023-04-10T09:35:04;13.20;99.90
12374;DHT22;6251;51.762;8.660;2023-04-10T09:45:05;13.40;99.90
12374;DHT22;6251;51.762;8.660;2023-04-10T09:55:06;13.70;99.90
12374;DHT22;6251;51.762;8.660;2023-04-10T10:05:09;14.00;99.90
12374;DHT22;6251;51.762;8.660;2023-04-10T10:15:15;14.10;99.90
12374;DHT22;6251;51.762;8.660;2023-04-10T10:25:18;14.40;99.90
12374;DHT22;6251;51.762;8.660;2023-04-10T10:35:23;14.70;97.30
12374;DHT22;6251;51.762;8.660;2023-04-10T10:45:52;15.40;95.10
12374;DHT22;6251;51.762;8.660;2023-04-10T10:55:53;15.60;97.50
12374;DHT22;6251;51.762;8.660;2023-04-10T11:06:00;15.90;96.50
12374;DHT22;6251;51.762;8.660;2023-04-10T11:16:05;16.30;96.60
12374;DHT22;6251;51.762;8.660;2023-04-10T11:26:06;16.80;94.80
12374;DHT22;6251;51.762;8.660;2023-04-10T11:36:06;17.20;93.60
12374;DHT22;6251;51.762;8.660;2023-04-10T11:46:07;17.30;92.60
12374;DHT22;6251;51.762;8.660;2023-04-10T11:56:18;17.50;94.70
12374;DHT22;6251;51.762;8.660;2023-04-10T12:06:20;17.40;93.10
12374;DHT22;6251;51.762;8.660;2023-04-10T12:16:21;17.50;93.70
12374;DHT22;6251;51.762;8.660;2023-04-10T12:26:22;17.70;90.90
12374;DHT22;6251;51.762;8.660;2023-04-10T12:36:24;17.80;88.50
12374;DHT22;6251;51.762;8.660;2023-04-10T12:46:29;17.90;91.00
12374;DHT22;6251;51.762;8.660;2023-04-10T12:56:43;17.90;86.70
12374;DHT22;6251;51.762;8.660;2023-04-10T13:06:45;18.10;88.30
12374;DHT22;6251;51.762;8.660;2023-04-10T13:16:46;18.40;84.40
12374;DHT22;6251;51.762;8.660;2023-04-10T13:26:46;18.40;88.50
12374;DHT22;6251;51.762;8.660;2023-04-10T13:36:47;18.40;85.60
12374;DHT22;6251;51.762;8.660;2023-04-10T13:46:48;18.40;85.70
12374;DHT22;6251;51.762;8.660;2023-04-10T14:07:45;18.50;82.20
12374;DHT22;6251;51.762;8.660;2023-04-10T14:17:46;18.70;85.10
12374;DHT22;6251;51.762;8.660;2023-04-10T14:27:47;18.70;80.70
12374;DHT22;6251;51.762;8.660;2023-04-10T14:37:47;18.90;85.40
12374;DHT22;6251;51.762;8.660;2023-04-10T14:47:48;18.90;85.40
12374;DHT22;6251;51.762;8.660;2023-04-10T14:57:48;18.80;79.60
12374;DHT22;6251;51.762;8.660;2023-04-10T15:07:49;18.50;76.60
12374;DHT22;6251;51.762;8.660;2023-04-10T15:17:49;18.40;80.60
12374;DHT22;6251;51.762;8.660;2023-04-10T15:27:50;18.50;78.00
12374;DHT22;6251;51.762;8.660;2023-04-10T15:37:51;18.50;81.30
12374;DHT22;6251;51.762;8.660;2023-04-10T15:47:51;18.40;78.60
12374;DHT22;6251;51.762;8.660;2023-04-10T15:57:52;18.20;80.10
12374;DHT22;6251;51.762;8.660;2023-04-10T16:07:53;18.20;77.50
12374;DHT22;6251;51.762;8.660;2023-04-10T16:17:54;17.60;80.80
12374;DHT22;6251;51.762;8.660;2023-04-10T16:27:55;17.20;80.60
12374;DHT22;6251;51.762;8.660;2023-04-10T16:37:55;16.80;78.10
12374;DHT22;6251;51.762;8.660;2023-04-10T16:47:56;16.50;79.20
12374;DHT22;6251;51.762;8.660;2023-04-10T16:57:57;16.30;83.60
12374;DHT22;6251;51.762;8.660;2023-04-10T17:07:57;16.00;84.00
12374;DHT22;6251;51.762;8.660;2023-04-10T17:17:58;15.80;86.40
12374;DHT22;6251;51.762;8.660;2023-04-10T17:27:58;15.80;86.90
12374;DHT22;6251;51.762;8.660;2023-04-10T17:37:59;15.80;86.00
12374;DHT22;6251;51.762;8.660;2023-04-10T17:48:00;15.50;87.30
12374;DHT22;6251;51.762;8.660;2023-04-10T17:58:00;15.30;88.30
12374;DHT22;6251;51.762;8.660;2023-04-10T18:08:01;15.20;87.60
12374;DHT22;6251;51.762;8.660;2023-04-10T18:18:01;15.00;90.20
12374;DHT22;6251;51.762;8.660;2023-04-10T18:28:02;14.80;90.30
12374;DHT22;6251;51.762;8.660;2023-04-10T18:38:03;14.70;89.70
12374;DHT22;6251;51.762;8.660;2023-04-10T18:48:03;14.60;90.40
12374;DHT22;6251;51.762;8.660;2023-04-10T18:58:04;14.50;90.80
12374;DHT22;6251;51.762;8.660;2023-04-10T19:08:05;14.40;90.30
12374;DHT22;6251;51.762;8.660;2023-04-10T19:18:05;14.30;88.80
12374;DHT22;6251;51.762;8.660;2023-04-10T19:28:06;14.30;90.60
12374;DHT22;6251;51.762;8.660;2023-04-10T19:38:06;14.20;90.30
12374;DHT22;6251;51.762;8.660;2023-04-10T19:48:08;14.10;88.90
12374;DHT22;6251;51.762;8.660;2023-04-10T19:58:09;14.10;88.20
12374;DHT22;6251;51.762;8.660;2023-04-10T20:08:09;13.80;99.50
12374;DHT22;6251;51.762;8.660;2023-04-10T20:18:10;11.90;99.90
12374;DHT22;6251;51.762;8.660;2023-04-10T20:28:11;11.20;99.90
12374;DHT22;6251;51.762;8.660;2023-04-10T20:38:12;11.00;99.90
12374;DHT22;6251;51.762;8.660;2023-04-10T20:48:12;10.80;99.90
12374;DHT22;6251;51.762;8.660;2023-04-10T20:58:13;10.50;99.90
12374;DHT22;6251;51.762;8.660;2023-04-10T23:10:14;9.20;99.90
